createdAt,value
2018-11-14T00:01:09.415Z,90
2018-11-14T00:06:11.858Z,89.6
2018-11-14T00:11:14.295Z,89.3
2018-11-14T00:16:16.724Z,89.2
2018-11-14T00:21:19.190Z,89.2
2018-11-14T00:26:21.597Z,89.1
2018-11-14T00:31:24.074Z,89.3
2018-11-14T00:36:26.530Z,89.8
2018-11-14T00:41:28.931Z,90
2018-11-14T00:46:31.360Z,90
2018-11-14T00:51:33.820Z,90
2018-11-14T00:56:36.240Z,89.8
2018-11-14T01:01:38.786Z,89.6
2018-11-14T01:06:41.133Z,89.4
2018-11-14T01:11:43.624Z,89.3
2018-11-14T01:16:45.998Z,89.3
2018-11-14T01:21:48.504Z,89.3
2018-11-14T01:26:50.887Z,89.2
2018-11-14T01:31:53.326Z,89.2
2018-11-14T01:36:55.770Z,89.4
2018-11-14T01:41:58.231Z,89.4
2018-11-14T01:47:00.645Z,89.4
2018-11-14T01:52:03.103Z,89.5
2018-11-14T01:57:05.519Z,89.3
2018-11-14T02:02:07.978Z,89.5
2018-11-14T02:07:10.439Z,89.5
2018-11-14T02:12:12.857Z,89.3
2018-11-14T02:17:15.309Z,89.4
2018-11-14T02:22:17.746Z,89.2
2018-11-14T02:27:20.178Z,89.8
2018-11-14T02:32:22.630Z,90.1
2018-11-14T02:37:25.117Z,90.2
2018-11-14T02:42:27.487Z,90.2
2018-11-14T02:47:29.944Z,90.4
2018-11-14T02:52:32.402Z,90.4
2018-11-14T02:57:34.817Z,90.4
2018-11-14T03:02:37.285Z,90.3
2018-11-14T03:07:39.731Z,90.2
2018-11-14T03:12:42.203Z,90.2
2018-11-14T03:17:44.614Z,90.1
2018-11-14T03:22:47.065Z,90.2
2018-11-14T03:27:49.520Z,90.2
2018-11-14T03:32:51.956Z,90.3
2018-11-14T03:37:54.327Z,90.5
2018-11-14T03:42:56.767Z,90.7
2018-11-14T03:47:59.216Z,90.6
2018-11-14T03:53:01.655Z,90.6
2018-11-14T03:58:04.117Z,90.5
2018-11-14T04:03:06.558Z,90.5
2018-11-14T04:08:08.990Z,90.5
2018-11-14T04:13:11.493Z,90.4
2018-11-14T04:18:13.858Z,90.4
2018-11-14T04:23:16.302Z,90.4
2018-11-14T04:28:18.742Z,90.3
2018-11-14T04:33:21.179Z,90.3
2018-11-14T04:38:23.611Z,90.2
2018-11-14T04:43:26.073Z,90.1
2018-11-14T04:48:28.498Z,90.1
2018-11-14T04:53:30.949Z,90.1
2018-11-14T04:58:33.365Z,90.2
2018-11-14T05:03:35.860Z,90.1
2018-11-14T05:08:38.253Z,90.2
2018-11-14T05:13:40.739Z,90.3
2018-11-14T05:18:43.142Z,90.2
2018-11-14T05:23:45.581Z,90.1
2018-11-14T05:28:48.015Z,90.1
2018-11-14T05:33:50.459Z,90.1
2018-11-14T05:38:53.062Z,90
2018-11-14T05:43:55.322Z,89.9
2018-11-14T05:48:57.778Z,89.9
2018-11-14T05:54:00.252Z,89.8
2018-11-14T05:59:02.893Z,90
2018-11-14T06:04:05.089Z,89.9
2018-11-14T06:09:07.539Z,90
2018-11-14T06:14:09.980Z,90
2018-11-14T06:19:12.424Z,89.9
2018-11-14T06:24:14.871Z,90.1
2018-11-14T06:29:17.311Z,90.1
2018-11-14T06:34:19.773Z,90
2018-11-14T06:39:22.209Z,90
2018-11-14T06:44:24.664Z,90.1
2018-11-14T06:49:27.210Z,89.8
2018-11-14T06:54:29.551Z,89.5
2018-11-14T06:59:32.107Z,89.2
2018-11-14T07:04:34.453Z,89.2
2018-11-14T07:09:36.900Z,89.6
2018-11-14T07:14:39.346Z,89.7
2018-11-14T07:19:41.841Z,89.8
2018-11-14T07:24:44.467Z,90
2018-11-14T07:29:46.681Z,90.2
2018-11-14T07:34:49.128Z,90.2
2018-11-14T07:39:51.570Z,90.2
2018-11-14T07:44:54.004Z,90.2
2018-11-14T07:49:56.499Z,90.2
2018-11-14T07:54:59.260Z,90.3
2018-11-14T08:00:06.476Z,90.3
2018-11-14T08:05:03.784Z,90.5
2018-11-14T08:10:06.253Z,90.7
2018-11-14T08:15:08.692Z,90.8
2018-11-14T08:20:11.109Z,90.9
2018-11-14T08:25:13.769Z,91
2018-11-14T08:30:16.017Z,91.1
2018-11-14T08:35:18.438Z,91.1
2018-11-14T08:40:20.880Z,91
2018-11-14T08:45:23.316Z,90.9
2018-11-14T08:50:25.800Z,90.9
2018-11-14T08:55:28.336Z,90.8
2018-11-14T09:00:30.633Z,90.8
2018-11-14T09:05:33.083Z,90.5
2018-11-14T09:10:35.529Z,90.3
2018-11-14T09:15:37.965Z,90.3
2018-11-14T09:20:40.499Z,90.3
2018-11-14T09:25:42.835Z,90.4
2018-11-14T09:30:45.330Z,90.3
2018-11-14T09:35:47.707Z,88.8
2018-11-14T09:40:50.326Z,85.1
2018-11-14T09:45:52.597Z,84.2
2018-11-14T09:50:55.080Z,83
2018-11-14T09:55:57.490Z,82.9
2018-11-14T10:01:00.167Z,82.6
2018-11-14T10:06:02.407Z,82.9
2018-11-14T10:11:04.796Z,83.3
2018-11-14T10:16:07.256Z,84.5
2018-11-14T10:21:09.740Z,84.1
2018-11-14T10:26:12.205Z,80.3
2018-11-14T10:31:14.544Z,79.4
2018-11-14T10:36:16.986Z,73.7
2018-11-14T10:41:19.446Z,73.3
2018-11-14T10:46:21.882Z,72
2018-11-14T10:51:24.321Z,73.6
2018-11-14T10:56:26.768Z,75.1
2018-11-14T11:01:29.201Z,74.3
2018-11-14T11:06:31.636Z,72.1
2018-11-14T11:11:34.100Z,65.6
2018-11-14T11:16:36.632Z,62.7
2018-11-14T11:21:38.952Z,64.8
2018-11-14T11:26:41.418Z,67.8
2018-11-14T11:31:43.920Z,70.1
2018-11-14T11:36:46.382Z,67.5
2018-11-14T11:41:48.732Z,58.6
2018-11-14T11:46:51.187Z,55.8
2018-11-14T11:51:53.614Z,54.1
2018-11-14T11:56:56.038Z,55.4
2018-11-14T12:01:58.530Z,52.5
2018-11-14T12:07:00.932Z,54.4
2018-11-14T12:12:03.413Z,54.9
2018-11-14T12:17:05.838Z,50.8
2018-11-14T12:22:08.250Z,50.6
2018-11-14T12:27:10.764Z,49.9
2018-11-14T12:32:13.130Z,48.6
2018-11-14T12:37:15.640Z,46.9
2018-11-14T12:42:18.013Z,45.2
2018-11-14T12:47:20.458Z,43.6
2018-11-14T12:52:22.912Z,43.3
2018-11-14T13:02:27.806Z,39.4
2018-11-14T13:07:30.228Z,37.5
2018-11-14T13:12:32.681Z,36.9
2018-11-14T13:17:35.158Z,38
2018-11-14T13:22:37.557Z,39.2
2018-11-14T13:27:40.005Z,38.9
2018-11-14T13:32:42.492Z,39.4
2018-11-14T13:37:44.869Z,40.8
2018-11-14T13:42:47.312Z,41.5
2018-11-14T13:47:49.754Z,42.9
2018-11-14T13:52:52.208Z,43.1
2018-11-14T13:57:54.641Z,41
2018-11-14T14:02:57.137Z,40.4
2018-11-14T14:07:59.568Z,40.9
2018-11-14T14:13:01.966Z,41.3
2018-11-14T14:18:04.451Z,42.2
2018-11-14T14:23:06.853Z,43.1
2018-11-14T14:28:09.353Z,43.8
2018-11-14T14:33:11.977Z,44.3
2018-11-14T14:38:14.231Z,45
2018-11-14T14:43:16.599Z,46.6
2018-11-14T14:48:19.044Z,47.3
2018-11-14T14:53:21.477Z,47.9
2018-11-14T14:58:23.915Z,48.4
2018-11-14T15:03:26.462Z,49.1
2018-11-14T15:08:28.817Z,49.4
2018-11-14T15:13:31.239Z,49.9
2018-11-14T15:18:33.683Z,50.4
2018-11-14T15:23:36.131Z,50.8
2018-11-14T15:28:38.602Z,51.3
2018-11-14T15:33:41.011Z,52
2018-11-14T15:38:43.496Z,53.1
2018-11-14T15:43:45.894Z,53.6
2018-11-14T15:48:48.340Z,54.1
2018-11-14T15:53:50.779Z,54.3
2018-11-14T15:58:53.202Z,54.9
2018-11-14T16:03:55.650Z,55.3
2018-11-14T16:08:58.083Z,55.7
2018-11-14T16:14:00.527Z,56
2018-11-14T16:19:02.982Z,56.3
2018-11-14T16:24:05.486Z,56.5
2018-11-14T16:29:07.846Z,56.8
2018-11-14T16:34:10.315Z,57.5
2018-11-14T16:39:12.725Z,58.7
2018-11-14T16:44:15.206Z,60.5
2018-11-14T16:49:17.647Z,61.6
2018-11-14T16:54:20.077Z,61.3
2018-11-14T16:59:22.514Z,61
2018-11-14T17:04:24.981Z,61.2
2018-11-14T17:09:27.403Z,61.5
2018-11-14T17:14:29.944Z,61.7
2018-11-14T17:19:32.305Z,61.3
2018-11-14T17:24:34.865Z,61.4
2018-11-14T17:29:37.190Z,62
2018-11-14T17:34:39.669Z,62.9
2018-11-14T17:44:44.509Z,63.9
